Cielo Di Guangzhou — LXGG — position and weather

sailwx.info

Track history (hours):
 
Tides and Currents Weather Stations Pressure Air Temp Water Temp Dewpoint Dewpoint Depression Visibility Wind Speed Wind Dir Waves Ship Positions

Cielo Di Guangzhou

Last reported at 2018-Feb-21 11:30 UTC. Time now 2018-Feb-21 11:41 UTC.
Position N 28°33' W 015°13'.

Length 174 m; draft 10.7 m.

Type: Tanker. MMSI: 253131000.

Date/timePositionNaut miles runAvg speedWind from/ knotsBaromVisibWave heightAir tempDewpointWater temp
2018-Feb-21 11:30N 28°33' W 015°13'713.4
2018-Feb-21 11:00N 28°39' W 015°11'713.5
2018-Feb-21 10:30N 28°46' W 015°09'52513.2
2018-Feb-19 18:39N 37°14' W 012°32'213.0
2018-Feb-19 18:30N 37°16' W 012°31'713.0
2018-Feb-19 18:00N 37°22' W 012°29'3413.1
2018-Feb-19 15:26N 37°55' W 012°18'6113.3
2018-Feb-19 10:49N 38°54' W 011°59'413.3
2018-Feb-19 10:30N 38°58' W 011°58'713.4
2018-Feb-19 10:00N 39°05' W 011°56'713.5
2018-Feb-19 09:30N 39°11' W 011°53'713.4
2018-Feb-19 09:00N 39°18' W 011°51'1013.4
2018-Feb-19 08:15N 39°27' W 011°48'713.1
2018-Feb-19 07:45N 39°34' W 011°46'55012.8
2018-Feb-17 12:41N 47°55' W 006°36'412.2
2018-Feb-17 12:22N 47°59' W 006°33'5713.3
2018-Feb-17 08:07N 48°49' W 005°53'313.1
2018-Feb-17 07:53N 48°51' W 005°51'12511.6
2018-Feb-16 21:08N 49°55' W 003°05'310.8
2018-Feb-16 20:51N 49°57' W 003°01'410.4
2018-Feb-16 20:31N 49°59' W 002°57'510.3
2018-Feb-16 20:01N 50°00' W 002°49'510.1
2018-Feb-16 19:30N 50°02' W 002°41'510.0
2018-Feb-16 18:58N 50°03' W 002°33'1710.9
2018-Feb-16 17:23N 50°08' W 002°07'512.6
2018-Feb-16 17:00N 50°09' W 002°00'713.6
2018-Feb-16 16:31N 50°11' W 001°50'714.5
2018-Feb-16 16:00N 50°13' W 001°39'815.0
2018-Feb-16 15:31N 50°14' W 001°28'815.3
2018-Feb-16 15:00N 50°16' W 001°16'3815.0
2018-Feb-16 12:28N 50°27' W 000°19'713.6
2018-Feb-16 11:56N 50°29' W 000°08'612.9
2018-Feb-16 11:30N 50°31' E 000°00'612.4
2018-Feb-16 11:00N 50°33' E 000°09'612.0
2018-Feb-16 10:31N 50°35' E 000°18'611.4
2018-Feb-16 10:00N 50°36' E 000°27'611.2
2018-Feb-16 09:30N 50°38' E 000°35'611.6
2018-Feb-16 09:00N 50°41' E 000°43'612.3
2018-Feb-16 08:30N 50°45' E 000°51'713.1
2018-Feb-16 08:00N 50°49' E 000°59'714.2
2018-Feb-16 07:30N 50°53' E 001°08'714.8
2018-Feb-16 07:00N 50°59' E 001°15'815.3
2018-Feb-16 06:30N 51°03' E 001°25'815.2
2018-Feb-16 06:00N 51°08' E 001°35'714.4
2018-Feb-16 05:31N 51°12' E 001°44'713.5
2018-Feb-16 05:00N 51°18' E 001°49'612.7
2018-Feb-16 04:30N 51°24' E 001°53'612.2
2018-Feb-16 04:00N 51°29' E 001°59'611.4
2018-Feb-16 03:30N 51°33' E 002°05'611.3
2018-Feb-16 03:01N 51°38' E 002°11'511.0
2018-Feb-16 02:31N 51°42' E 002°17'5612.2
2018-Feb-15 21:56N 52°23' E 003°18'613.5
2018-Feb-15 21:30N 52°25' E 003°27'713.7
2018-Feb-15 21:01N 52°28' E 003°37'713.6
2018-Feb-15 20:30N 52°30' E 003°47'713.1
2018-Feb-15 20:00N 52°31' E 003°58'611.9
2018-Feb-15 19:30N 52°31' E 004°08'2 4.2
2018-Feb-15 18:58N 52°31' E 004°12'0 0.1
2018-Feb-15 18:28N 52°31' E 004°12'0 0.1
2018-Feb-15 17:58N 52°31' E 004°12'0 0.0
2018-Feb-15 17:30N 52°31' E 004°12'0 0.1
2018-Feb-15 17:00N 52°31' E 004°12'0 0.5
2018-Feb-15 16:31N 52°31' E 004°12'611.2
2018-Feb-15 16:00N 52°30' E 004°21'5 9.4
2018-Feb-15 15:31N 52°28' E 004°28'5 9.7
2018-Feb-15 15:01N 52°28' E 004°36'0 0.6
2018-Feb-15 14:30N 52°28' E 004°37'1 2.6
2018-Feb-15 14:00N 52°28' E 004°39'2 4.0
2018-Feb-15 13:30N 52°27' E 004°42'2 4.0
2018-Feb-15 13:01N 52°26' E 004°44'1 2.0
2018-Feb-15 12:28N 52°25' E 004°45'0 0.0
2018-Feb-15 11:58N 52°25' E 004°45'0 0.0
2018-Feb-15 11:28N 52°25' E 004°45'0 0.0
2018-Feb-15 10:58N 52°25' E 004°45'0 0.0
2018-Feb-15 10:28N 52°25' E 004°45'0 0.0
2018-Feb-15 09:58N 52°25' E 004°45'0 0.0
2018-Feb-15 09:25N 52°25' E 004°45'0 0.0
2018-Feb-15 08:58N 52°25' E 004°45'0 0.0
2018-Feb-15 08:28N 52°25' E 004°45'0 0.0
2018-Feb-15 07:58N 52°25' E 004°45'0 0.0
2018-Feb-15 07:28N 52°25' E 004°45'0 0.0
2018-Feb-15 06:58N 52°25' E 004°45'0 0.0
2018-Feb-15 06:28N 52°25' E 004°45'0 0.0
2018-Feb-15 05:58N 52°25' E 004°45'0 0.0
2018-Feb-15 05:28N 52°25' E 004°45'0 0.0
2018-Feb-15 04:58N 52°25' E 004°45'0 0.0
2018-Feb-15 04:28N 52°25' E 004°45'0 0.0
2018-Feb-15 03:58N 52°25' E 004°45'0 0.0
2018-Feb-15 03:28N 52°25' E 004°45'0 0.0
2018-Feb-15 02:58N 52°25' E 004°45'0 0.0
2018-Feb-15 02:28N 52°25' E 004°45'0 0.0
2018-Feb-15 01:58N 52°25' E 004°45'0 0.0
2018-Feb-15 01:28N 52°25' E 004°45'0 0.0
2018-Feb-15 00:58N 52°25' E 004°45'0 0.0
2018-Feb-15 00:28N 52°25' E 004°45'0 0.0
2018-Feb-14 23:58N 52°25' E 004°45'0 0.0
2018-Feb-14 23:28N 52°25' E 004°45'0 0.0
2018-Feb-14 22:58N 52°25' E 004°45'0 0.0
2018-Feb-14 22:28N 52°25' E 004°45'0 0.0
2018-Feb-14 21:58N 52°25' E 004°45'0 0.0
2018-Feb-14 21:28N 52°25' E 004°45'0 0.0
2018-Feb-14 20:58N 52°25' E 004°45'0 0.0
2018-Feb-14 20:28N 52°25' E 004°45'0 0.0
2018-Feb-14 19:58N 52°25' E 004°45'0 0.0
2018-Feb-14 19:28N 52°25' E 004°45'0 0.0
2018-Feb-14 18:58N 52°25' E 004°45'0 0.0
2018-Feb-14 18:28N 52°25' E 004°45'0 0.0
2018-Feb-14 17:58N 52°25' E 004°45'0 0.0
2018-Feb-14 17:28N 52°25' E 004°45'0 0.0
2018-Feb-14 16:58N 52°25' E 004°45'0 0.0
2018-Feb-14 16:28N 52°25' E 004°45'0 0.0
2018-Feb-14 15:58N 52°25' E 004°45'0 0.0
2018-Feb-14 15:28N 52°25' E 004°45'0 0.0
2018-Feb-14 14:58N 52°25' E 004°45'0 0.0
2018-Feb-14 14:28N 52°25' E 004°45'0 0.0
2018-Feb-14 13:58N 52°25' E 004°45'0 0.0
2018-Feb-14 13:28N 52°25' E 004°45'0 0.0
2018-Feb-14 12:58N 52°25' E 004°45'0 0.0
2018-Feb-14 12:28N 52°25' E 004°45'0 0.0
2018-Feb-14 11:58N 52°25' E 004°45'0 0.0
2018-Feb-14 11:28N 52°25' E 004°45'0 0.0
2018-Feb-14 10:58N 52°25' E 004°45'0 0.0
2018-Feb-14 10:28N 52°25' E 004°45'0 0.0
2018-Feb-14 09:58N 52°25' E 004°45'0 0.0
2018-Feb-14 09:28N 52°25' E 004°45'0 0.0
2018-Feb-14 08:58N 52°25' E 004°45'0 0.0
2018-Feb-14 08:28N 52°25' E 004°45'0 0.0
2018-Feb-14 07:58N 52°25' E 004°45'0 0.0
2018-Feb-14 07:28N 52°25' E 004°45'0 0.0
2018-Feb-14 06:58N 52°25' E 004°45'0 0.0
2018-Feb-14 06:28N 52°25' E 004°45'0 0.0
2018-Feb-14 05:58N 52°25' E 004°45'0 0.0
2018-Feb-14 05:29N 52°25' E 004°45'0 0.2
2018-Feb-14 05:00N 52°25' E 004°45'1 1.7
2018-Feb-14 04:31N 52°26' E 004°45'1 1.5
2018-Feb-14 04:01N 52°25' E 004°46'0 0.2
2018-Feb-14 03:31N 52°25' E 004°46'0 0.0
2018-Feb-14 03:00N 52°25' E 004°46'0 0.0
2018-Feb-14 02:31N 52°25' E 004°46'0 0.0
2018-Feb-14 02:00N 52°25' E 004°46'0 0.0
2018-Feb-14 01:30N 52°25' E 004°46'0 0.0
2018-Feb-14 01:00N 52°25' E 004°46'0 0.0
2018-Feb-14 00:30N 52°25' E 004°46'0 0.0
2018-Feb-14 00:00N 52°25' E 004°46'0 0.0
2018-Feb-13 23:31N 52°25' E 004°46'0 0.0
2018-Feb-13 23:00N 52°25' E 004°46'0 0.0
2018-Feb-13 22:31N 52°25' E 004°46'0 0.0
2018-Feb-13 22:00N 52°25' E 004°46'0 0.0
2018-Feb-13 21:30N 52°25' E 004°46'0 0.0
2018-Feb-13 21:00N 52°25' E 004°46'0 0.0
2018-Feb-13 20:30N 52°25' E 004°46'0 0.0
2018-Feb-13 20:00N 52°25' E 004°46'0 0.0
2018-Feb-13 19:30N 52°25' E 004°46'0 0.0
2018-Feb-13 19:00N 52°25' E 004°46'0 0.0
2018-Feb-13 18:31N 52°25' E 004°46'0 0.0
2018-Feb-13 18:00N 52°25' E 004°46'0 0.0
2018-Feb-13 17:31N 52°25' E 004°46'0 0.0
2018-Feb-13 17:00N 52°25' E 004°46'0 0.2
2018-Feb-13 16:30N 52°25' E 004°46'1 1.2
2018-Feb-13 15:56N 52°25' E 004°47'0 0.0
2018-Feb-13 15:29N 52°25' E 004°47'0 0.0
2018-Feb-13 14:59N 52°25' E 004°47'0 0.0
2018-Feb-13 14:29N 52°25' E 004°47'0 0.0
2018-Feb-13 13:59N 52°25' E 004°47'0 0.0
2018-Feb-13 13:29N 52°25' E 004°47'0 0.0
2018-Feb-13 12:56N 52°25' E 004°47'0 0.0
2018-Feb-13 12:29N 52°25' E 004°47'0 0.0
2018-Feb-13 11:56N 52°25' E 004°47'0 0.0
2018-Feb-13 11:29N 52°25' E 004°47'0 0.0
2018-Feb-13 10:59N 52°25' E 004°47'0 0.0
2018-Feb-13 10:29N 52°25' E 004°47'0 0.0
2018-Feb-13 09:59N 52°25' E 004°47'0 0.0
2018-Feb-13 09:29N 52°25' E 004°47'0 0.0
2018-Feb-13 08:56N 52°25' E 004°47'0 0.0
2018-Feb-13 08:29N 52°25' E 004°47'0 0.0
2018-Feb-13 07:59N 52°25' E 004°47'0 0.0
2018-Feb-13 07:29N 52°25' E 004°47'0 0.0
2018-Feb-13 06:59N 52°25' E 004°47'0 0.0
2018-Feb-13 06:29N 52°25' E 004°47'0 0.0
2018-Feb-13 05:59N 52°25' E 004°47'0 0.0
2018-Feb-13 05:29N 52°25' E 004°47'0 0.0
2018-Feb-13 04:59N 52°25' E 004°47'0 0.0
2018-Feb-13 04:29N 52°25' E 004°47'0 0.0
2018-Feb-13 03:59N 52°25' E 004°47'0 0.0
2018-Feb-13 03:29N 52°25' E 004°47'0 0.0
2018-Feb-13 02:59N 52°25' E 004°47'0 0.0
2018-Feb-13 02:26N 52°25' E 004°47'0 0.0
2018-Feb-13 01:59N 52°25' E 004°47'0 0.0
2018-Feb-13 01:26N 52°25' E 004°47'0 0.0
2018-Feb-13 00:59N 52°25' E 004°47'0 0.0
2018-Feb-13 00:29N 52°25' E 004°47'0 0.0
2018-Feb-12 23:59N 52°25' E 004°47'0 0.0
2018-Feb-12 23:29N 52°25' E 004°47'0 0.0
2018-Feb-12 22:59N 52°25' E 004°47'0 0.0
2018-Feb-12 22:29N 52°25' E 004°47'0 0.0
2018-Feb-12 21:59N 52°25' E 004°47'0 0.0
2018-Feb-12 21:29N 52°25' E 004°47'0 0.0
2018-Feb-12 20:59N 52°25' E 004°47'0 0.0
2018-Feb-12 20:26N 52°25' E 004°47'0 0.0
2018-Feb-12 19:56N 52°25' E 004°47'0 0.0
2018-Feb-12 19:29N 52°25' E 004°47'0 0.0
2018-Feb-12 18:59N 52°25' E 004°47'0 0.0
2018-Feb-12 18:29N 52°25' E 004°47'0 0.0
2018-Feb-12 17:59N 52°25' E 004°47'0 0.0
2018-Feb-12 17:26N 52°25' E 004°47'0 0.0
2018-Feb-12 16:59N 52°25' E 004°47'0 0.0
2018-Feb-12 16:29N 52°25' E 004°47'0 0.0
2018-Feb-12 15:59N 52°25' E 004°47'0 0.0
2018-Feb-12 15:17N 52°25' E 004°47'0 0.0
2018-Feb-12 14:59N 52°25' E 004°47'0 0.0
2018-Feb-12 14:29N 52°25' E 004°47'0 0.0
2018-Feb-12 13:59N 52°25' E 004°47'0 0.0
2018-Feb-12 13:29N 52°25' E 004°47'0 0.0
2018-Feb-12 12:59N 52°25' E 004°47'0 0.0
2018-Feb-12 12:29N 52°25' E 004°47'0 0.0
2018-Feb-12 11:59N 52°25' E 004°47'0 0.0
2018-Feb-12 11:29N 52°25' E 004°47'0 0.0
2018-Feb-12 10:59N 52°25' E 004°47'0 0.0
2018-Feb-12 10:29N 52°25' E 004°47'0 0.0
2018-Feb-12 09:59N 52°25' E 004°47'0 0.0
2018-Feb-12 09:29N 52°25' E 004°47'0 0.0
2018-Feb-12 08:53N 52°25' E 004°47'0 0.0
2018-Feb-12 08:26N 52°25' E 004°47'0 0.0
2018-Feb-12 07:53N 52°25' E 004°47'0 0.2
2018-Feb-12 07:30N 52°25' E 004°47'2 3.9
2018-Feb-12 07:00N 52°26' E 004°44'4 8.1
2018-Feb-12 06:30N 52°28' E 004°39'1 2.4
2018-Feb-12 06:00N 52°28' E 004°37'0 0.7
2018-Feb-12 05:31N 52°28' E 004°36'3 5.8
2018-Feb-12 05:00N 52°28' E 004°31'612.0
2018-Feb-12 04:30N 52°28' E 004°21'1 2.3
2018-Feb-12 04:01N 52°27' E 004°20'0 0.3
2018-Feb-12 03:30N 52°28' E 004°20'1 1.3
2018-Feb-12 03:00N 52°28' E 004°20'2 3.4
2018-Feb-12 02:30N 52°29' E 004°17'3 5.5
2018-Feb-12 02:00N 52°29' E 004°12'3 6.6
2018-Feb-12 01:30N 52°28' E 004°07'1 1.4
2018-Feb-12 01:00N 52°28' E 004°06'0 0.0
2018-Feb-12 00:30N 52°28' E 004°06'0 0.0
2018-Feb-12 00:00N 52°28' E 004°06'0 0.0
2018-Feb-11 23:30N 52°28' E 004°06'0 0.0
2018-Feb-11 22:54N 52°28' E 004°06'0 0.0
2018-Feb-11 22:30N 52°28' E 004°06'0 0.1
2018-Feb-11 21:57N 52°28' E 004°06'0 0.0
2018-Feb-11 21:30N 52°28' E 004°06'0 0.1
2018-Feb-11 20:57N 52°28' E 004°06'0 0.0
2018-Feb-11 20:30N 52°28' E 004°06'0 0.0
2018-Feb-11 20:00N 52°28' E 004°06'0 0.0
2018-Feb-11 19:30N 52°28' E 004°06'0 0.1
2018-Feb-11 19:00N 52°28' E 004°06'0 0.1
2018-Feb-11 18:30N 52°28' E 004°06'0 0.2
2018-Feb-11 18:00N 52°28' E 004°06'0 0.7
2018-Feb-11 17:30N 52°27' E 004°07'1 2.7
2018-Feb-11 17:01N 52°28' E 004°05'4 7.3
2018-Feb-11 16:31N 52°28' E 003°59'611.5
2018-Feb-11 16:00N 52°26' E 003°49'612.0
2018-Feb-11 15:29N 52°24' E 003°40'611.8
2018-Feb-11 14:59N 52°21' E 003°32'  
Track history (hours):
 
Tides and Currents Weather Stations Pressure Air Temp Water Temp Dewpoint Dewpoint Depression Visibility Wind Speed Wind Dir Waves Ship Positions

Cielo Di Guangzhou

Last reported at 2018-Feb-21 11:30 UTC. Time now 2018-Feb-21 11:41 UTC.
Position N 28°33' W 015°13'.

Length 174 m; draft 10.7 m.

Type: Tanker. MMSI: 253131000.

Date/timePositionNaut miles runAvg speedWind from/ knotsBaromVisibWave heightAir tempDewpointWater temp
2018-Feb-21 11:30N 28°33' W 015°13'713.4
2018-Feb-21 11:00N 28°39' W 015°11'713.5
2018-Feb-21 10:30N 28°46' W 015°09'52513.2
2018-Feb-19 18:39N 37°14' W 012°32'213.0
2018-Feb-19 18:30N 37°16' W 012°31'713.0
2018-Feb-19 18:00N 37°22' W 012°29'3413.1
2018-Feb-19 15:26N 37°55' W 012°18'6113.3
2018-Feb-19 10:49N 38°54' W 011°59'413.3
2018-Feb-19 10:30N 38°58' W 011°58'713.4
2018-Feb-19 10:00N 39°05' W 011°56'713.5
2018-Feb-19 09:30N 39°11' W 011°53'713.4
2018-Feb-19 09:00N 39°18' W 011°51'1013.4
2018-Feb-19 08:15N 39°27' W 011°48'713.1
2018-Feb-19 07:45N 39°34' W 011°46'55012.8
2018-Feb-17 12:41N 47°55' W 006°36'412.2
2018-Feb-17 12:22N 47°59' W 006°33'5713.3
2018-Feb-17 08:07N 48°49' W 005°53'313.1
2018-Feb-17 07:53N 48°51' W 005°51'12511.6
2018-Feb-16 21:08N 49°55' W 003°05'310.8
2018-Feb-16 20:51N 49°57' W 003°01'410.4
2018-Feb-16 20:31N 49°59' W 002°57'510.3
2018-Feb-16 20:01N 50°00' W 002°49'510.1
2018-Feb-16 19:30N 50°02' W 002°41'510.0
2018-Feb-16 18:58N 50°03' W 002°33'1710.9
2018-Feb-16 17:23N 50°08' W 002°07'512.6
2018-Feb-16 17:00N 50°09' W 002°00'713.6
2018-Feb-16 16:31N 50°11' W 001°50'714.5
2018-Feb-16 16:00N 50°13' W 001°39'815.0
2018-Feb-16 15:31N 50°14' W 001°28'815.3
2018-Feb-16 15:00N 50°16' W 001°16'3815.0
2018-Feb-16 12:28N 50°27' W 000°19'713.6
2018-Feb-16 11:56N 50°29' W 000°08'612.9
2018-Feb-16 11:30N 50°31' E 000°00'612.4
2018-Feb-16 11:00N 50°33' E 000°09'612.0
2018-Feb-16 10:31N 50°35' E 000°18'611.4
2018-Feb-16 10:00N 50°36' E 000°27'611.2
2018-Feb-16 09:30N 50°38' E 000°35'611.6
2018-Feb-16 09:00N 50°41' E 000°43'612.3
2018-Feb-16 08:30N 50°45' E 000°51'713.1
2018-Feb-16 08:00N 50°49' E 000°59'714.2
2018-Feb-16 07:30N 50°53' E 001°08'714.8
2018-Feb-16 07:00N 50°59' E 001°15'815.3
2018-Feb-16 06:30N 51°03' E 001°25'815.2
2018-Feb-16 06:00N 51°08' E 001°35'714.4
2018-Feb-16 05:31N 51°12' E 001°44'713.5
2018-Feb-16 05:00N 51°18' E 001°49'612.7
2018-Feb-16 04:30N 51°24' E 001°53'612.2
2018-Feb-16 04:00N 51°29' E 001°59'611.4
2018-Feb-16 03:30N 51°33' E 002°05'611.3
2018-Feb-16 03:01N 51°38' E 002°11'511.0
2018-Feb-16 02:31N 51°42' E 002°17'5612.2
2018-Feb-15 21:56N 52°23' E 003°18'613.5
2018-Feb-15 21:30N 52°25' E 003°27'713.7
2018-Feb-15 21:01N 52°28' E 003°37'713.6
2018-Feb-15 20:30N 52°30' E 003°47'713.1
2018-Feb-15 20:00N 52°31' E 003°58'611.9
2018-Feb-15 19:30N 52°31' E 004°08'2 4.2
2018-Feb-15 18:58N 52°31' E 004°12'0 0.1
2018-Feb-15 18:28N 52°31' E 004°12'0 0.1
2018-Feb-15 17:58N 52°31' E 004°12'0 0.0
2018-Feb-15 17:30N 52°31' E 004°12'0 0.1
2018-Feb-15 17:00N 52°31' E 004°12'0 0.5
2018-Feb-15 16:31N 52°31' E 004°12'611.2
2018-Feb-15 16:00N 52°30' E 004°21'5 9.4
2018-Feb-15 15:31N 52°28' E 004°28'5 9.7
2018-Feb-15 15:01N 52°28' E 004°36'0 0.6
2018-Feb-15 14:30N 52°28' E 004°37'1 2.6
2018-Feb-15 14:00N 52°28' E 004°39'2 4.0
2018-Feb-15 13:30N 52°27' E 004°42'2 4.0
2018-Feb-15 13:01N 52°26' E 004°44'1 2.0
2018-Feb-15 12:28N 52°25' E 004°45'0 0.0
2018-Feb-15 11:58N 52°25' E 004°45'0 0.0
2018-Feb-15 11:28N 52°25' E 004°45'0 0.0
2018-Feb-15 10:58N 52°25' E 004°45'0 0.0
2018-Feb-15 10:28N 52°25' E 004°45'0 0.0
2018-Feb-15 09:58N 52°25' E 004°45'0 0.0
2018-Feb-15 09:25N 52°25' E 004°45'0 0.0
2018-Feb-15 08:58N 52°25' E 004°45'0 0.0
2018-Feb-15 08:28N 52°25' E 004°45'0 0.0
2018-Feb-15 07:58N 52°25' E 004°45'0 0.0
2018-Feb-15 07:28N 52°25' E 004°45'0 0.0
2018-Feb-15 06:58N 52°25' E 004°45'0 0.0
2018-Feb-15 06:28N 52°25' E 004°45'0 0.0
2018-Feb-15 05:58N 52°25' E 004°45'0 0.0
2018-Feb-15 05:28N 52°25' E 004°45'0 0.0
2018-Feb-15 04:58N 52°25' E 004°45'0 0.0
2018-Feb-15 04:28N 52°25' E 004°45'0 0.0
2018-Feb-15 03:58N 52°25' E 004°45'0 0.0
2018-Feb-15 03:28N 52°25' E 004°45'0 0.0
2018-Feb-15 02:58N 52°25' E 004°45'0 0.0
2018-Feb-15 02:28N 52°25' E 004°45'0 0.0
2018-Feb-15 01:58N 52°25' E 004°45'0 0.0
2018-Feb-15 01:28N 52°25' E 004°45'0 0.0
2018-Feb-15 00:58N 52°25' E 004°45'0 0.0
2018-Feb-15 00:28N 52°25' E 004°45'0 0.0
2018-Feb-14 23:58N 52°25' E 004°45'0 0.0
2018-Feb-14 23:28N 52°25' E 004°45'0 0.0
2018-Feb-14 22:58N 52°25' E 004°45'0 0.0
2018-Feb-14 22:28N 52°25' E 004°45'0 0.0
2018-Feb-14 21:58N 52°25' E 004°45'0 0.0
2018-Feb-14 21:28N 52°25' E 004°45'0 0.0
2018-Feb-14 20:58N 52°25' E 004°45'0 0.0
2018-Feb-14 20:28N 52°25' E 004°45'0 0.0
2018-Feb-14 19:58N 52°25' E 004°45'0 0.0
2018-Feb-14 19:28N 52°25' E 004°45'0 0.0
2018-Feb-14 18:58N 52°25' E 004°45'0 0.0
2018-Feb-14 18:28N 52°25' E 004°45'0 0.0
2018-Feb-14 17:58N 52°25' E 004°45'0 0.0
2018-Feb-14 17:28N 52°25' E 004°45'0 0.0
2018-Feb-14 16:58N 52°25' E 004°45'0 0.0
2018-Feb-14 16:28N 52°25' E 004°45'0 0.0
2018-Feb-14 15:58N 52°25' E 004°45'0 0.0
2018-Feb-14 15:28N 52°25' E 004°45'0 0.0
2018-Feb-14 14:58N 52°25' E 004°45'0 0.0
2018-Feb-14 14:28N 52°25' E 004°45'0 0.0
2018-Feb-14 13:58N 52°25' E 004°45'0 0.0
2018-Feb-14 13:28N 52°25' E 004°45'0 0.0
2018-Feb-14 12:58N 52°25' E 004°45'0 0.0
2018-Feb-14 12:28N 52°25' E 004°45'0 0.0
2018-Feb-14 11:58N 52°25' E 004°45'0 0.0
2018-Feb-14 11:28N 52°25' E 004°45'0 0.0
2018-Feb-14 10:58N 52°25' E 004°45'0 0.0
2018-Feb-14 10:28N 52°25' E 004°45'0 0.0
2018-Feb-14 09:58N 52°25' E 004°45'0 0.0
2018-Feb-14 09:28N 52°25' E 004°45'0 0.0
2018-Feb-14 08:58N 52°25' E 004°45'0 0.0
2018-Feb-14 08:28N 52°25' E 004°45'0 0.0
2018-Feb-14 07:58N 52°25' E 004°45'0 0.0
2018-Feb-14 07:28N 52°25' E 004°45'0 0.0
2018-Feb-14 06:58N 52°25' E 004°45'0 0.0
2018-Feb-14 06:28N 52°25' E 004°45'0 0.0
2018-Feb-14 05:58N 52°25' E 004°45'0 0.0
2018-Feb-14 05:29N 52°25' E 004°45'0 0.2
2018-Feb-14 05:00N 52°25' E 004°45'1 1.7
2018-Feb-14 04:31N 52°26' E 004°45'1 1.5
2018-Feb-14 04:01N 52°25' E 004°46'0 0.2
2018-Feb-14 03:31N 52°25' E 004°46'0 0.0
2018-Feb-14 03:00N 52°25' E 004°46'0 0.0
2018-Feb-14 02:31N 52°25' E 004°46'0 0.0
2018-Feb-14 02:00N 52°25' E 004°46'0 0.0
2018-Feb-14 01:30N 52°25' E 004°46'0 0.0
2018-Feb-14 01:00N 52°25' E 004°46'0 0.0
2018-Feb-14 00:30N 52°25' E 004°46'0 0.0
2018-Feb-14 00:00N 52°25' E 004°46'0 0.0
2018-Feb-13 23:31N 52°25' E 004°46'0 0.0
2018-Feb-13 23:00N 52°25' E 004°46'0 0.0
2018-Feb-13 22:31N 52°25' E 004°46'0 0.0
2018-Feb-13 22:00N 52°25' E 004°46'0 0.0
2018-Feb-13 21:30N 52°25' E 004°46'0 0.0
2018-Feb-13 21:00N 52°25' E 004°46'0 0.0
2018-Feb-13 20:30N 52°25' E 004°46'0 0.0
2018-Feb-13 20:00N 52°25' E 004°46'0 0.0
2018-Feb-13 19:30N 52°25' E 004°46'0 0.0
2018-Feb-13 19:00N 52°25' E 004°46'0 0.0
2018-Feb-13 18:31N 52°25' E 004°46'0 0.0
2018-Feb-13 18:00N 52°25' E 004°46'0 0.0
2018-Feb-13 17:31N 52°25' E 004°46'0 0.0
2018-Feb-13 17:00N 52°25' E 004°46'0 0.2
2018-Feb-13 16:30N 52°25' E 004°46'1 1.2
2018-Feb-13 15:56N 52°25' E 004°47'0 0.0
2018-Feb-13 15:29N 52°25' E 004°47'0 0.0
2018-Feb-13 14:59N 52°25' E 004°47'0 0.0
2018-Feb-13 14:29N 52°25' E 004°47'0 0.0
2018-Feb-13 13:59N 52°25' E 004°47'0 0.0
2018-Feb-13 13:29N 52°25' E 004°47'0 0.0
2018-Feb-13 12:56N 52°25' E 004°47'0 0.0
2018-Feb-13 12:29N 52°25' E 004°47'0 0.0
2018-Feb-13 11:56N 52°25' E 004°47'0 0.0
2018-Feb-13 11:29N 52°25' E 004°47'0 0.0
2018-Feb-13 10:59N 52°25' E 004°47'0 0.0
2018-Feb-13 10:29N 52°25' E 004°47'0 0.0
2018-Feb-13 09:59N 52°25' E 004°47'0 0.0
2018-Feb-13 09:29N 52°25' E 004°47'0 0.0
2018-Feb-13 08:56N 52°25' E 004°47'0 0.0
2018-Feb-13 08:29N 52°25' E 004°47'0 0.0
2018-Feb-13 07:59N 52°25' E 004°47'0 0.0
2018-Feb-13 07:29N 52°25' E 004°47'0 0.0
2018-Feb-13 06:59N 52°25' E 004°47'0 0.0
2018-Feb-13 06:29N 52°25' E 004°47'0 0.0
2018-Feb-13 05:59N 52°25' E 004°47'0 0.0
2018-Feb-13 05:29N 52°25' E 004°47'0 0.0
2018-Feb-13 04:59N 52°25' E 004°47'0 0.0
2018-Feb-13 04:29N 52°25' E 004°47'0 0.0
2018-Feb-13 03:59N 52°25' E 004°47'0 0.0
2018-Feb-13 03:29N 52°25' E 004°47'0 0.0
2018-Feb-13 02:59N 52°25' E 004°47'0 0.0
2018-Feb-13 02:26N 52°25' E 004°47'0 0.0
2018-Feb-13 01:59N 52°25' E 004°47'0 0.0
2018-Feb-13 01:26N 52°25' E 004°47'0 0.0
2018-Feb-13 00:59N 52°25' E 004°47'0 0.0
2018-Feb-13 00:29N 52°25' E 004°47'0 0.0
2018-Feb-12 23:59N 52°25' E 004°47'0 0.0
2018-Feb-12 23:29N 52°25' E 004°47'0 0.0
2018-Feb-12 22:59N 52°25' E 004°47'0 0.0
2018-Feb-12 22:29N 52°25' E 004°47'0 0.0
2018-Feb-12 21:59N 52°25' E 004°47'0 0.0
2018-Feb-12 21:29N 52°25' E 004°47'0 0.0
2018-Feb-12 20:59N 52°25' E 004°47'0 0.0
2018-Feb-12 20:26N 52°25' E 004°47'0 0.0
2018-Feb-12 19:56N 52°25' E 004°47'0 0.0
2018-Feb-12 19:29N 52°25' E 004°47'0 0.0
2018-Feb-12 18:59N 52°25' E 004°47'0 0.0
2018-Feb-12 18:29N 52°25' E 004°47'0 0.0
2018-Feb-12 17:59N 52°25' E 004°47'0 0.0
2018-Feb-12 17:26N 52°25' E 004°47'0 0.0
2018-Feb-12 16:59N 52°25' E 004°47'0 0.0
2018-Feb-12 16:29N 52°25' E 004°47'0 0.0
2018-Feb-12 15:59N 52°25' E 004°47'0 0.0
2018-Feb-12 15:17N 52°25' E 004°47'0 0.0
2018-Feb-12 14:59N 52°25' E 004°47'0 0.0
2018-Feb-12 14:29N 52°25' E 004°47'0 0.0
2018-Feb-12 13:59N 52°25' E 004°47'0 0.0
2018-Feb-12 13:29N 52°25' E 004°47'0 0.0
2018-Feb-12 12:59N 52°25' E 004°47'0 0.0
2018-Feb-12 12:29N 52°25' E 004°47'0 0.0
2018-Feb-12 11:59N 52°25' E 004°47'0 0.0
2018-Feb-12 11:29N 52°25' E 004°47'0 0.0
2018-Feb-12 10:59N 52°25' E 004°47'0 0.0
2018-Feb-12 10:29N 52°25' E 004°47'0 0.0
2018-Feb-12 09:59N 52°25' E 004°47'0 0.0
2018-Feb-12 09:29N 52°25' E 004°47'0 0.0
2018-Feb-12 08:53N 52°25' E 004°47'0 0.0
2018-Feb-12 08:26N 52°25' E 004°47'0 0.0
2018-Feb-12 07:53N 52°25' E 004°47'0 0.2
2018-Feb-12 07:30N 52°25' E 004°47'2 3.9
2018-Feb-12 07:00N 52°26' E 004°44'4 8.1
2018-Feb-12 06:30N 52°28' E 004°39'1 2.4
2018-Feb-12 06:00N 52°28' E 004°37'0 0.7
2018-Feb-12 05:31N 52°28' E 004°36'3 5.8
2018-Feb-12 05:00N 52°28' E 004°31'612.0
2018-Feb-12 04:30N 52°28' E 004°21'1 2.3
2018-Feb-12 04:01N 52°27' E 004°20'0 0.3
2018-Feb-12 03:30N 52°28' E 004°20'1 1.3
2018-Feb-12 03:00N 52°28' E 004°20'2 3.4
2018-Feb-12 02:30N 52°29' E 004°17'3 5.5
2018-Feb-12 02:00N 52°29' E 004°12'3 6.6
2018-Feb-12 01:30N 52°28' E 004°07'1 1.4
2018-Feb-12 01:00N 52°28' E 004°06'0 0.0
2018-Feb-12 00:30N 52°28' E 004°06'0 0.0
2018-Feb-12 00:00N 52°28' E 004°06'0 0.0
2018-Feb-11 23:30N 52°28' E 004°06'0 0.0
2018-Feb-11 22:54N 52°28' E 004°06'0 0.0
2018-Feb-11 22:30N 52°28' E 004°06'0 0.1
2018-Feb-11 21:57N 52°28' E 004°06'0 0.0
2018-Feb-11 21:30N 52°28' E 004°06'0 0.1
2018-Feb-11 20:57N 52°28' E 004°06'0 0.0
2018-Feb-11 20:30N 52°28' E 004°06'0 0.0
2018-Feb-11 20:00N 52°28' E 004°06'0 0.0
2018-Feb-11 19:30N 52°28' E 004°06'0 0.1
2018-Feb-11 19:00N 52°28' E 004°06'0 0.1
2018-Feb-11 18:30N 52°28' E 004°06'0 0.2
2018-Feb-11 18:00N 52°28' E 004°06'0 0.7
2018-Feb-11 17:30N 52°27' E 004°07'1 2.7
2018-Feb-11 17:01N 52°28' E 004°05'4 7.3
2018-Feb-11 16:31N 52°28' E 003°59'611.5
2018-Feb-11 16:00N 52°26' E 003°49'612.0
2018-Feb-11 15:29N 52°24' E 003°40'611.8
2018-Feb-11 14:59N 52°21' E 003°32'  

Dump ship's entire track history